Timeline UpdatesTrip UpdatesNews PostsPvt PostsTravel TipsAdmin PostsConv PostsFollowed PostsChat RequestsBlog PostsPNR Posts

Disclaimer
Search
 
 
Tue Jul 29, 2014 10:09:44 ISTHomeTrainsΣChainsAtlasPNRForumGalleryNewsFAQTripsMembersLoginFeedback
No Recent News for this Train
Other Trains in the News **new
Latest...
From 11.09.2013 to 9.11.2013........19024 Firozpur Janata Express will be terminated at Dadar.
Thu Sep 05, 2013 (07:07PM)
⇐ Return Journey: Train# 19023

19024/Firozpur - Mumbai Central Janta Express

Dec 24 2013 (8:25PM)
Change Departure Station:
Change Arrival Station:
Post a Train Travel TipPost a Train Travel Tip **new
Post a Comment/Question/Picture/VideoPost a Comment/Question/Picture/Video
Inaugural Run
Mon Oct 01, 1956
Pantry/Catering
✕ NO Pantry Car
✓ Catering Avbl
Catering from local vendors
RSA - Rake Sharing
Dedicated Rake.No RSA
Rake/Coach Composition
LOCO<SLR,GS,GS(MST),GS,S-1, S-2, S-3, S-4, S-5, S-6, S-7, S-8,GS,SLR,HCPV=14+1
Loco
TKD WDP-4/4B between FZR-NDLS, GZB WAP5 between NDLS-BCT
News    PNR    Forum    Time-Table    Availability    Fare Chart    Map    Arr/Dep History    Trips    Gallery    ΣChains    X/O    Timeline    
Travel Time: 12h 36m    34 halts    Distance: 567 km    Avg Speed: 45 km/hr
Type: Mail/Express
Zone: WR/Western
Departs @ 07:10 (Avg 27m late)
Platform# ???
SMTWTFS
Meghnagar/MGN 
Arrives @ 19:46 (Avg 3m late)
Platform# 5
SMTWTFS
Mumbai Dadar Western/DDR 

34 halts. 105 intermediate Stations between Meghnagar and Mumbai Dadar Western

Show ALL intermediate Stations  Show Old Time-Table

#CodeStation NameX/OArrivesAvgDepartsAvgHaltPFDay#KmSpeedElevZoneAddress
1FZRFirozpur Cantt. Junction (5)  -05:10+1011-1200.181200mNRFirozpur Cantt 152001, Punjab
2FDKFaridkot (3)  05:34+1905:36+192m11-1167.855202mNRFaridkot, Punjab
3KKPKot Kapura Junction (3)  05:50+2005:52+202m11-1155.1650mNRKotkapura, Punjab
4GJUTGangsar Jaitu (3)  06:07+2106:09+212m11-1138.861207mNRJaitu, Punjab
5GNAGoneana Bhai Jagta (3)X  06:23+2006:25+222m11-1124.625206mNRGoniana, Punjab
6BTIBathinda Junction (6)  06:55+807:05+1010m21-1112.382208mNRBathinda, Punjab
7MAURMaur  07:31+2307:33+232m--1-1076.8101220mNRMaur Mandi, Punjab
8KTKLKotli Kalan  07:39-07:41-2m--1-1066.740219mNRState Highway 12A, Punjab
9MSZMansa  07:54+2307:56+232m--1-1058.174222mNRMansa, Punjab
10BLZBudhlada  08:09+2508:11+262m--1-1042.071223mNRBudhlada, Punjab
11BRZBareta  08:24+2608:26+262m--1-1026.650223mNRBareta, Punjab
12JHLJakhal Junction  08:43+2408:45+242m--1-1012.467225mNRJakhal, Haryana
13TUNTohana (2)  08:56+2708:58+272m--1-1000.176232mNRTohana, Haryana
14NRWNarwana Junction (4)  09:18+2809:20+282m--1-974.770235mNRWay to Narwana, Haryana
15UCAUchanaX  09:33+2809:35+282m--1-959.545225mNRDistrict Jind, Haryana
16JINDJind Junction (3)  10:00+1810:05+175m--1-940.870222mNR126102., Haryana
17JNAJulana  10:27+2410:29+242m--1-915.152226mNRJulana, Haryana
18ROKRohtak Junction (3)  11:05+1411:08+163m--1-883.763220mNRRohtak, Haryana
19ISMIsmaila Haryana  11:26-11:28-2m--1-864.953221mNRNational Highway 10, Haryana
20SPZSampla  11:32+1511:34+152m--1-861.372222mNRSampla, Haryana
21BGZBahadurgarh  11:49+1911:51+192m--1-843.462220mNRBahadurgarh, Haryana
22NNONangloi  12:03+2112:05+222m--1-830.948219mNRJJ Colony No 1, Delhi NCT
23MGLPMangolpuriX  12:09+012:11+02m--1-827.726217mNROutter Ring Rd, Delhi NCT
24SSBShakur Basti  12:21+1812:23+192m--1-823.532216mNRPitampura, Delhi NCT
25DKZDelhi KishanGanj (2)  12:36+2612:38+262m--1-816.59220mNRSarai Rohilla, Delhi NCT
26NDLSNew Delhi (16)X13:05+2313:35+2530m71-812.632215mNRNew Delhi, Delhi NCT
27NZMDelhi Hazrat Nizamuddin (7)XO  13:49+3313:51+342m11-805.237209mNRNizamuddin East/Sarai KaleKhan Bus Terminal, Delhi NCT
28OKAOkhla (4)X  13:57+3613:59+352m--1-801.652221mNRIshwar Nagar Mathura Road, Delhi NCT
29TKDTuglakabad (4)XO  14:06+3614:08+362m11-795.644213mNRNear Tughlakabad Metro Station, Delhi NCT
30FDBFaridabad (4)  14:23+3414:25+342m31-784.527206mNRold Faridabad, Haryana
31BVHBallabgarh (5)O  14:43+3014:45+312m--1-776.439203mNRFaridabad, Haryana
32PWLPalwal (8)  15:18+1915:20+202m--1-755.285200mNRPalwal, Haryana
33KSVKosi Kalan (3)XO  15:50+4315:52+462m21-712.756189mNCRKosi Kalan, Uttar Pradesh
34CHJChata (4)X  16:03+4616:05+482m--1-702.534185mNCRChhata, Uttar Pradesh
35MTJMathura Junction (10)  17:00+2517:05+305m31-671.380179mNCRMathura, Uttar Pradesh
36BTEBharatpur Junction (5)O  17:30+4017:35+415m31-637.872174mWCRBharatpur, Rajasthan
37BXNBayana Junction (3)X  18:10+4018:15+395m--1-595.891198mWCRBayana, Rajasthan
38FSPFateh SinghpuraX  18:28+4318:30+462m--1-576.144223mWCRState Highway 1, Rajasthan
39HANHindaun City (2)  18:48+4018:50+492m--1-562.961230mWCRKarauli, Rajasthan
40SMBJShri Mahabirji (3)XO  19:00+4919:02+492m--1-552.743240mWCRKarauli, Rajasthan
41GGCGangapur City (3)  19:50+3719:55+425m21-518.664270mWCRGangapur, Rajasthan
42NNWNarayanpur Tatwara (2)OT20:11+4220:12+431m--1-501.736256mWCRSawai Madhopur, Rajasthan
43MLZMalarna  20:40+2920:42+302m21-484.979236mWCRSawai Madhopur, Rajasthan
44SWMSawai Madhopur Junction (4)X  21:05+3821:10+435m21-454.787266mWCRSawai Madhopur, Rajasthan
45IDGIndargarh Sumerganj Mandi (2)  21:35+4921:37+522m--1-418.566247mWCRIndargarh, Rajasthan
46LKELakheri (3)X  21:47+5221:49+542m--1-407.545228mWCRBundi, Rajasthan
47KOTAKota Junction (5)  23:10+5323:20+5510m21-346.968256mWCRKota, Rajasthan
48RMARamganj Mandi Junction (3)X  00:23+5600:25+1:002m--2-275.657358mWCRRamganj Mandi, Rajasthan
49JHWJhalawar Road (3)XO  00:38+5800:40+1:002m--2-263.330361mWCRJhalawar City, Rajasthan
50BWMBhawani Mandi (3)X  01:13+4501:15+492m--2-246.874384mWCRBhawani Mandi, Madhya Pradesh
51SGZShamgarh (3)X  01:42+5001:47+515m--2-213.350463mWCRMandsaur, Madhya Pradesh
52SVASuwasra (2)O  02:03+4702:05+532m--2-199.940450mWCRSuwasra, Madhya Pradesh
53CMUChau Mahla (3)  02:28+4502:30+452m12-184.520426mWCRJhalawar, Rajasthan
54VMAVikramgarh Alot (2)X  03:36+1303:38+162m12-162.741443mWCRKota Division, Madhya Pradesh
55MEPMahidpur Road  04:13+404:15+62m--2-138.841493mWCRGogapur, Madhya Pradesh
56NADNagda Junction (4)X  04:40+504:45+105m--2-121.775468mWRNagda, Madhya Pradesh
57KUHKhachrod (2)X  04:56+1504:58+152m--2-107.935497mWRUjjain, Madhya Pradesh
58RTMRatlam Junction (7)X  05:45+1606:00+1815m42-80.377495mWRRatlam, Madhya Pradesh
59BMIBamnia (2)X  06:35+2606:37+252m--2-35.575392mWRBamnia, Madhya Pradesh
60THDRThandla Road (2)  06:59+2707:01+262m--2-8.068317mWRJhabua, Madhya Pradesh
61MGN»Meghnagar (3)»  07:08+2807:10+272m--20.080317mWRJhabua, Madhya Pradesh
62DHDDahod (3)X  07:35+3307:40+335m--233.173313mWRDahod, Gujarat
63LMKLimkheda  08:07+3308:09+332m--266.168205mWRLimkheda, Gujarat
64PPDPiplod Junction  08:16+3208:18+322m--274.089209mWRPiplod, Gujarat
65SATSant Road (2)X  08:26+3308:28+322m2285.920169mWROrwara, Gujarat
66GDAGodhra Junction (3)X  09:29+909:34+115m12106.274122mWRGodhra, Gujarat
67DRLDerol  09:53+1409:55+142m--2129.87981mWRKalol, Gujarat
68SMLASamlaya Junction (3)  10:13+1510:15+152m--2153.55367mWRVadodara, Gujarat
69BRCVadodara Junction (7)X10:45+1810:55+1710m12180.18936mWRVadodara 390005, Gujarat
70MYGMiyagam Karjan (2)  11:15+2411:17+242m22210.08329mWRKarjan, Gujarat
71PLJPalej (4)  11:28+2711:30+272m--2225.28029mWRPalej, Gujarat
72NIUNabipur (3)XT11:40+3011:42+302m--2238.65224mWRNabipur, Gujarat
73BHBharuch Junction (5)  11:56+2511:58+262m22250.66219mWRBharuch, Gujarat
74AKVAnkleshwar Junction (4)O  12:07+2812:09+292m22260.04819mWRAnkleshwar, Gujarat
75PAOPanoli (3)T12:22+2112:24+212m--2270.36229mWRPanoli, Gujarat
76KSBKosamba Junction (3)XO  12:32+2412:34+232m22278.55830mWRKosamba, Gujarat
77KIMKim (2)T12:42+2612:44+262m22286.33118mWRNH 8, Gujarat
78STSurat (4)X  13:30+1713:35+175m22309.97119mWRSurat 395001, Gujarat
79MRLMaroli (3)  13:53+2713:55+282m22331.14615mWRMaroli, Gujarat
80NVSNavsari (3)  14:06+2614:08+282m22339.55514mWRNavsari, Gujarat
81AMLAmalsad (3)  14:25+2614:27+262m22355.13712mWRAmalsad, Gujarat
82BIMBilimora Junction (4)XO  14:36+2314:38+242m22360.73611mWRBilimora, Gujarat
83BLValsad (3)X  15:08+1615:10+212m32378.64615mWRValsad, Gujarat
84PADPardi (3)XT15:24+1715:26+172m--2389.35119mWRValsad, Gujarat
85UVDUdvada (3)T15:33+1615:35+182m--2395.35218mWRUdvada, Gujarat
86VAPIVapi (3)XO  15:46+1915:48+252m22404.93427mWRVapi, Gujarat
87BLDBhilad (3)XO  16:08+2016:10+192m--2416.16933mWRBhilad, Gujarat
88SJNSanjan (3)XO  16:20+1916:22+192m--2427.75422mWRSanjan, Gujarat
89UBRUmbargam Road (3)XO  16:28+1816:30+182m--2433.14730mWRUmbergaon, Gujarat
90DRDDahanu Road (5)X  16:56+1016:58+112m--2453.47412mWRDahanu, Maharashtra
91VGNVangaon (3)XO  17:08+1217:10+112m--2465.77111mWRThane, Maharashtra
92BORBoisar (3)XO  17:18+1117:20+112m32475.16117mWRBoisar Tel.no-02525-266626, Maharashtra
93PLGPalghar (3)XO  17:31+917:33+92m22486.45719mWRPalghar, Maharashtra
94VRVirar (8)XO  18:06+118:08+32m42517.5526mWRThane, Maharashtra
95BVIMumbai Borivali (8)  18:38+718:40+82m52543.32219mWRMumbai - 400092, Maharashtra
96DDR•Mumbai Dadar Western (6)•  19:46+319:48+42m52567.1166mWRMumbai, Maharashtra
97BCTMumbai Central (9)  20:10+2-52573.0-3mWRMumbai 400008, Maharashtra
Scroll to Top
Scroll to Bottom